Terminal Aerodrome Forecast
Issued by NWS

Home | Current Version | Previous Version | Text Only | Print | Product List | Glossary On
Versions: 1 2 3 4 5 6 7 8 9 10 11 12 13 14 15 16 17 18 19
312
FTUS46 KMFR 262341
TAFOTH
TAF
KOTH 262341Z 2700/2724 25010KT P6SM -SHRA SCT006 OVC012
      TEMPO 2700/2702 4SM RA BKN007 OVC020
     FM270900 21011KT P6SM -SHRA BKN030 OVC050
     FM271500 23008KT P6SM -SHRA SCT025 OVC040
     FM271900 28010KT P6SM BKN050=

USA.gov is the U.S. government's official web portal to all federal, state and local government web resources and services.